createdAt,value
2019-03-23T00:41:32.442Z,6.33
2019-03-23T00:42:58.563Z,5.55
2019-03-23T00:44:24.591Z,6.50
2019-03-23T00:45:50.664Z,5.97
2019-03-23T00:47:16.824Z,5.10
2019-03-23T00:48:43.264Z,5.12
2019-03-23T00:50:10.734Z,5.97
2019-03-23T00:51:36.970Z,5.08
2019-03-23T00:53:03.075Z,4.80
2019-03-23T00:54:29.208Z,4.67
2019-03-23T00:55:55.253Z,4.65
2019-03-23T00:57:21.550Z,4.80
2019-03-23T00:58:47.713Z,5.60
2019-03-23T01:00:14.087Z,5.00
2019-03-23T01:01:40.180Z,4.45
2019-03-23T01:03:06.334Z,4.37
2019-03-23T01:04:32.497Z,4.83
2019-03-23T01:05:58.573Z,4.33
2019-03-23T01:07:24.737Z,4.80
2019-03-23T01:08:50.858Z,5.47
2019-03-23T01:10:17.102Z,5.17
2019-03-23T01:11:43.230Z,4.40
2019-03-23T01:13:09.327Z,5.20
2019-03-23T01:14:35.447Z,5.60
2019-03-23T01:16:01.546Z,4.70
2019-03-23T01:17:27.690Z,5.00
2019-03-23T01:18:53.733Z,5.30
2019-03-23T01:20:19.914Z,5.13
2019-03-23T01:21:46.074Z,4.23
2019-03-23T01:23:12.183Z,4.50
2019-03-23T01:24:38.305Z,4.40
2019-03-23T01:26:04.612Z,5.23
2019-03-23T01:27:30.668Z,5.00
2019-03-23T01:28:56.752Z,4.40
2019-03-23T01:30:22.817Z,4.80
2019-03-23T01:31:48.915Z,5.43
2019-03-23T01:33:15.003Z,5.60
2019-03-23T01:34:41.279Z,5.73
2019-03-23T01:36:07.363Z,5.80
2019-03-23T01:37:33.445Z,5.90
2019-03-23T01:38:59.479Z,6.50
2019-03-23T01:40:25.646Z,6.10
2019-03-23T01:41:51.921Z,6.00
2019-03-23T01:43:18.069Z,5.70
2019-03-23T01:44:44.166Z,6.13
2019-03-23T01:46:10.227Z,5.70
2019-03-23T01:47:36.480Z,4.77
2019-03-23T01:49:02.614Z,4.90
2019-03-23T01:50:28.792Z,5.13
2019-03-23T01:51:54.825Z,5.50
2019-03-23T01:53:20.873Z,4.70
2019-03-23T01:54:47.011Z,3.90
2019-03-23T01:56:13.539Z,4.13
2019-03-23T01:57:39.595Z,5.10
2019-03-23T01:59:05.680Z,4.90
2019-03-23T02:00:31.900Z,4.30
2019-03-23T02:01:57.980Z,4.77
2019-03-23T02:03:24.120Z,5.03
2019-03-23T02:04:50.174Z,5.17
2019-03-23T02:06:16.550Z,4.27
2019-03-23T02:07:42.798Z,4.70
2019-03-23T02:09:09.463Z,4.20
2019-03-23T02:10:35.684Z,4.80
2019-03-23T02:12:02.184Z,4.40
2019-03-23T02:13:28.705Z,5.70
2019-03-23T02:14:54.861Z,4.83
2019-03-23T02:16:21.157Z,5.53
2019-03-23T02:17:48.191Z,5.03
2019-03-23T02:19:14.248Z,4.70
2019-03-23T02:20:40.296Z,4.60
2019-03-23T02:22:06.368Z,4.03
2019-03-23T02:23:32.411Z,4.70
2019-03-23T02:24:58.499Z,4.42
2019-03-23T02:26:24.600Z,4.60
2019-03-23T02:27:50.803Z,4.50
2019-03-23T02:29:17.083Z,5.70
2019-03-23T02:30:43.086Z,4.50
2019-03-23T02:32:11.347Z,4.50
2019-03-23T02:33:37.546Z,5.20
2019-03-23T02:35:03.651Z,5.57
2019-03-23T02:36:29.775Z,4.77
2019-03-23T02:37:55.787Z,4.67
2019-03-23T02:39:21.882Z,4.10
2019-03-23T02:40:48.188Z,4.47
2019-03-23T02:42:14.298Z,5.07
2019-03-23T02:43:40.480Z,3.80
2019-03-23T02:45:07.373Z,3.80
2019-03-23T02:46:33.464Z,4.50
2019-03-23T02:47:59.555Z,4.47
2019-03-23T02:49:25.534Z,5.13
2019-03-23T02:50:51.572Z,4.73
2019-03-23T02:52:17.768Z,5.07
2019-03-23T02:53:43.940Z,4.60
2019-03-23T02:55:10.459Z,5.10
2019-03-23T02:56:36.556Z,5.60
2019-03-23T02:58:02.629Z,4.90
2019-03-23T02:59:28.616Z,4.23
2019-03-23T03:00:54.625Z,3.93
2019-03-23T03:02:20.981Z,5.10
2019-03-23T03:03:46.991Z,4.43
2019-03-23T03:05:13.367Z,4.80
2019-03-23T03:06:39.397Z,3.90
2019-03-23T03:08:05.709Z,5.50
2019-03-23T03:09:31.699Z,4.87
2019-03-23T03:10:57.694Z,5.43
2019-03-23T03:12:23.734Z,4.90
2019-03-23T07:41:57.393Z,8.33
2019-03-23T07:43:23.556Z,7.30
2019-03-23T07:44:49.727Z,7.42
2019-03-23T07:46:16.212Z,7.17
2019-03-23T07:47:42.449Z,7.55
2019-03-23T07:49:09.030Z,8.03
2019-03-23T07:50:35.256Z,7.45
2019-03-23T07:52:01.333Z,6.95
2019-03-23T07:53:27.468Z,7.47
2019-03-23T07:54:53.633Z,6.78
2019-03-23T07:56:19.710Z,8.23
2019-03-23T07:57:47.561Z,7.20
2019-03-23T07:59:13.830Z,7.47
2019-03-23T08:00:40.977Z,7.17
2019-03-23T08:02:07.828Z,7.78
2019-03-23T08:03:34.049Z,6.60
2019-03-23T08:05:00.337Z,6.85
2019-03-23T08:06:26.523Z,7.30
2019-03-23T08:07:52.548Z,7.20
2019-03-23T08:09:20.634Z,7.13
2019-03-23T08:10:46.484Z,7.30
2019-03-23T08:12:12.634Z,7.23
2019-03-23T08:13:38.619Z,7.20
2019-03-23T08:15:04.862Z,7.23
2019-03-23T08:16:30.974Z,7.85
2019-03-23T08:17:57.206Z,8.90
2019-03-23T08:19:23.308Z,7.60
2019-03-23T08:20:49.327Z,8.33
2019-03-23T08:22:15.415Z,8.10
2019-03-23T08:23:42.140Z,7.70
2019-03-23T08:25:08.406Z,8.83
2019-03-23T08:26:34.760Z,6.50
2019-03-23T08:28:01.052Z,8.47
2019-03-23T08:29:27.117Z,8.93
2019-03-23T08:30:53.141Z,9.03
2019-03-23T08:32:19.204Z,6.40
2019-03-23T08:33:45.372Z,6.37
2019-03-23T08:35:11.662Z,6.53
2019-03-23T08:36:37.796Z,6.87
2019-03-23T08:38:03.903Z,7.60
2019-03-23T08:39:29.998Z,6.60
2019-03-23T08:41:01.169Z,7.07
2019-03-23T08:42:27.246Z,6.93
2019-03-23T08:43:53.312Z,6.90
2019-03-23T08:45:19.986Z,7.30
2019-03-23T08:46:46.395Z,6.80
2019-03-23T08:48:12.818Z,7.10
2019-03-23T08:49:38.890Z,6.40
2019-03-23T08:51:04.998Z,7.10
2019-03-23T08:52:31.218Z,7.83
2019-03-23T08:53:57.313Z,7.17
2019-03-23T08:55:23.488Z,6.43
2019-03-23T08:56:49.590Z,6.87
2019-03-23T08:58:15.662Z,6.23
2019-03-23T08:59:41.675Z,6.90
2019-03-23T09:01:07.905Z,6.03
2019-03-23T09:02:33.973Z,6.70
2019-03-23T09:04:00.048Z,7.53
2019-03-23T09:05:26.342Z,6.23
2019-03-23T09:06:52.500Z,6.53
2019-03-23T09:08:18.632Z,6.60
2019-03-23T09:09:44.723Z,6.30
2019-03-23T09:11:20.755Z,7.10
2019-03-23T09:12:45.711Z,7.63
2019-03-23T09:14:11.768Z,6.20
2019-03-23T09:15:37.879Z,6.10
2019-03-23T09:17:03.906Z,5.40
2019-03-23T09:18:31.051Z,5.10
2019-03-23T09:19:57.129Z,5.90
2019-03-23T09:21:23.340Z,5.80
2019-03-23T09:22:49.368Z,5.57
2019-03-23T09:24:15.447Z,5.80
2019-03-23T09:25:41.615Z,5.50
2019-03-23T09:27:07.618Z,7.37
2019-03-23T09:28:33.704Z,6.93
2019-03-23T09:29:59.752Z,10.23
2019-03-23T09:31:25.897Z,7.90
2019-03-23T09:32:52.058Z,5.90
2019-03-23T09:34:18.170Z,7.10
2019-03-23T09:35:44.279Z,6.00
2019-03-23T09:37:10.576Z,5.23
2019-03-23T09:38:36.620Z,5.50
2019-03-23T09:40:10.707Z,5.90
2019-03-23T09:41:30.448Z,5.53
2019-03-23T09:42:56.597Z,6.07
2019-03-23T09:44:22.721Z,5.17
2019-03-23T09:45:48.748Z,5.70
2019-03-23T09:47:14.973Z,5.70
2019-03-23T09:48:41.144Z,6.37
2019-03-23T09:50:08.003Z,5.77
2019-03-23T09:51:34.054Z,6.50
2019-03-23T09:53:00.171Z,5.63
2019-03-23T09:54:26.332Z,7.07
2019-03-23T09:55:52.368Z,6.37
2019-03-23T09:57:18.443Z,5.27
2019-03-23T09:58:44.558Z,5.27
2019-03-23T10:00:11.304Z,6.17
2019-03-23T10:01:37.328Z,5.27
2019-03-23T10:03:03.435Z,5.57
2019-03-23T10:04:29.414Z,5.40
2019-03-23T10:05:55.596Z,5.60
2019-03-23T10:07:21.650Z,5.40
2019-03-23T10:08:47.683Z,4.83
2019-03-23T10:10:21.761Z,5.67
2019-03-23T10:11:41.694Z,5.47
2019-03-23T10:13:07.766Z,5.20
2019-03-23T10:14:33.900Z,5.60
2019-03-23T10:15:59.967Z,5.30
2019-03-23T10:17:26.023Z,6.40
2019-03-23T10:18:52.154Z,6.60
2019-03-23T10:20:18.284Z,6.10
2019-03-23T10:21:44.412Z,5.57
2019-03-23T10:23:10.581Z,5.10
2019-03-23T10:24:36.779Z,7.73
2019-03-23T10:26:03.079Z,6.60
2019-03-23T10:27:29.137Z,6.17
2019-03-23T10:28:55.157Z,6.13
2019-03-23T10:30:21.275Z,7.08
2019-03-23T10:31:47.323Z,7.13
2019-03-23T10:33:13.386Z,7.40
2019-03-23T10:34:39.423Z,8.60
2019-03-23T10:36:05.777Z,7.67
2019-03-23T10:37:32.336Z,7.87
2019-03-23T10:38:58.503Z,7.77
2019-03-23T10:40:32.489Z,7.30
2019-03-23T10:41:58.053Z,8.77
2019-03-23T10:43:27.041Z,8.00
2019-03-23T10:44:57.817Z,7.40
2019-03-23T10:46:25.112Z,11.23
2019-03-23T10:47:51.320Z,9.27
2019-03-23T10:49:17.579Z,10.37
2019-03-23T10:50:43.876Z,9.63
2019-03-23T10:52:09.922Z,9.03
2019-03-23T10:53:36.901Z,9.43
2019-03-23T10:55:03.479Z,7.77
2019-03-23T10:56:29.727Z,8.30
2019-03-23T10:57:55.764Z,11.70
2019-03-23T10:59:21.800Z,10.70
2019-03-23T11:00:48.162Z,9.73
2019-03-23T11:02:14.513Z,8.37
2019-03-23T11:03:40.521Z,7.40
2019-03-23T11:05:07.932Z,7.80
2019-03-23T11:06:33.998Z,8.53
2019-03-23T11:08:00.129Z,8.53
2019-03-23T11:09:26.153Z,7.57
2019-03-23T11:10:52.222Z,6.90
2019-03-23T11:12:18.227Z,7.80
2019-03-23T11:13:44.658Z,7.63
2019-03-23T11:15:11.157Z,7.70
2019-03-23T11:16:37.396Z,8.30
2019-03-23T11:18:03.388Z,6.77
2019-03-23T11:19:29.429Z,8.47
2019-03-23T11:20:55.526Z,8.13
2019-03-23T11:22:22.018Z,7.90
2019-03-23T11:23:48.047Z,8.60
2019-03-23T11:25:14.381Z,8.27
2019-03-23T11:26:40.536Z,9.20
2019-03-23T11:28:06.740Z,7.83
2019-03-23T11:29:32.807Z,8.87
2019-03-23T11:31:00.549Z,8.77
2019-03-23T11:32:26.859Z,9.80
2019-03-23T11:33:52.992Z,8.20
2019-03-23T11:35:19.216Z,8.63
2019-03-23T11:36:47.970Z,8.63
2019-03-23T11:38:13.917Z,8.83
2019-03-23T11:39:39.983Z,9.37
2019-03-23T11:41:06.135Z,8.50
2019-03-23T11:42:48.790Z,9.07
2019-03-23T11:44:13.032Z,8.47
2019-03-23T11:45:39.668Z,8.53
2019-03-23T11:47:05.823Z,8.83
2019-03-23T11:48:31.919Z,8.90
2019-03-23T11:50:03.871Z,9.40
2019-03-23T11:51:36.233Z,8.23
2019-03-23T11:53:04.855Z,6.93
2019-03-23T11:54:32.831Z,8.13
2019-03-23T11:55:58.896Z,7.43
2019-03-23T11:57:24.936Z,8.60
2019-03-23T11:58:51.012Z,9.27
2019-03-23T12:00:17.251Z,7.83
2019-03-23T12:01:51.498Z,7.67
2019-03-23T12:03:11.371Z,7.40
2019-03-23T12:04:37.520Z,7.10
2019-03-23T12:06:05.868Z,7.37
2019-03-23T12:07:31.940Z,7.10
2019-03-23T12:08:58.057Z,5.53
2019-03-23T12:10:24.151Z,5.50
2019-03-23T12:11:50.155Z,5.70
2019-03-23T12:13:16.200Z,7.37
2019-03-23T12:14:42.314Z,7.63
2019-03-23T12:16:08.764Z,7.03
2019-03-23T12:17:34.852Z,5.70
2019-03-23T12:19:00.917Z,7.17
2019-03-23T12:20:26.974Z,6.40
2019-03-23T12:21:53.399Z,7.03
2019-03-23T12:23:19.476Z,5.95
2019-03-23T12:24:45.829Z,5.57
2019-03-23T12:26:12.308Z,4.73
2019-03-23T12:27:38.540Z,4.30
2019-03-23T12:29:09.242Z,5.17
2019-03-23T12:30:35.295Z,4.00
2019-03-23T12:32:01.441Z,3.77
2019-03-23T12:33:27.963Z,4.10
2019-03-23T12:34:54.566Z,3.27
2019-03-23T12:36:20.578Z,3.90
2019-03-23T12:37:46.697Z,3.37
2019-03-23T12:39:12.754Z,3.50
2019-03-23T12:40:38.980Z,3.90
2019-03-23T12:42:05.047Z,4.20
2019-03-23T12:43:31.523Z,4.93
2019-03-23T12:44:57.624Z,4.10
2019-03-23T12:48:48.649Z,4.00
2019-03-23T12:50:15.004Z,4.23
2019-03-23T12:51:41.260Z,3.93
2019-03-23T12:53:07.401Z,4.40
2019-03-23T12:54:33.478Z,4.70
2019-03-23T12:55:59.569Z,4.70
2019-03-23T12:57:25.570Z,3.70
2019-03-23T12:58:51.671Z,3.73
2019-03-23T13:00:17.909Z,3.57
2019-03-23T13:01:43.964Z,3.63
2019-03-23T13:03:10.245Z,3.90
2019-03-23T13:04:36.401Z,4.10
2019-03-23T13:06:02.740Z,3.53
2019-03-23T13:07:28.763Z,3.60
2019-03-23T13:08:55.001Z,3.83
2019-03-23T13:10:21.158Z,3.87
2019-03-23T13:11:47.336Z,3.90
2019-03-23T13:13:13.579Z,4.43
2019-03-23T13:14:39.666Z,4.90
2019-03-23T13:16:05.983Z,3.17
2019-03-23T13:17:32.025Z,3.50
2019-03-23T13:18:58.082Z,4.07
2019-03-23T13:20:24.314Z,4.70
2019-03-23T13:21:52.144Z,4.13
2019-03-23T13:23:18.203Z,4.40
2019-03-23T13:24:44.201Z,3.97
2019-03-23T13:26:10.409Z,3.60
2019-03-23T13:27:36.974Z,4.00
2019-03-23T13:29:02.967Z,3.37
2019-03-23T13:30:33.032Z,3.10
2019-03-23T13:31:59.070Z,3.13
2019-03-23T13:33:25.575Z,3.90
2019-03-23T13:34:53.033Z,3.93
2019-03-23T13:36:20.814Z,3.70
2019-03-23T13:37:47.143Z,3.80
2019-03-23T13:39:13.256Z,3.83
2019-03-23T13:40:39.306Z,3.90
2019-03-23T13:42:05.853Z,3.70
2019-03-23T13:43:31.912Z,4.10
2019-03-23T13:44:58.091Z,3.20
2019-03-23T13:46:24.211Z,5.23
2019-03-23T13:47:50.332Z,25.83
2019-03-23T13:49:16.467Z,22.33
2019-03-23T13:50:42.585Z,14.70
2019-03-23T13:52:08.751Z,6.00
2019-03-23T13:53:34.903Z,4.20
2019-03-23T13:55:00.984Z,3.90
2019-03-23T13:56:27.411Z,3.87
2019-03-23T13:57:53.500Z,3.50
2019-03-23T13:59:19.561Z,5.63
2019-03-23T14:00:45.778Z,6.20
2019-03-23T14:02:11.848Z,3.70
2019-03-23T14:03:37.907Z,3.63
2019-03-23T14:05:04.140Z,3.20
2019-03-23T14:06:30.133Z,5.70
2019-03-23T14:07:56.302Z,3.70
2019-03-23T14:09:22.378Z,3.77
2019-03-23T14:10:48.427Z,3.90
2019-03-23T14:12:14.429Z,3.17
2019-03-23T14:13:40.469Z,2.93
2019-03-23T14:15:07.124Z,3.30
2019-03-23T14:16:33.177Z,3.43
2019-03-23T14:17:59.331Z,3.33
2019-03-23T14:19:25.336Z,3.23
2019-03-23T14:20:51.376Z,3.47
2019-03-23T14:22:17.412Z,2.80
2019-03-23T14:23:44.352Z,3.00
2019-03-23T14:25:11.109Z,3.70
2019-03-23T14:26:37.123Z,3.00
2019-03-23T14:28:03.169Z,3.77
2019-03-23T14:29:29.182Z,2.87
2019-03-23T14:30:55.215Z,3.97
2019-03-23T14:32:21.267Z,3.47
2019-03-23T14:33:47.345Z,3.60
2019-03-23T14:35:13.602Z,3.57
2019-03-23T14:36:39.743Z,4.27
2019-03-23T14:38:05.743Z,3.80
2019-03-23T14:39:31.796Z,3.10
2019-03-23T14:40:57.942Z,4.00
2019-03-23T14:42:23.960Z,3.53
2019-03-23T14:43:49.970Z,3.50
2019-03-23T14:45:16.156Z,3.60
2019-03-23T14:46:42.213Z,3.40
2019-03-23T14:48:08.304Z,3.60
2019-03-23T14:49:34.331Z,3.23
2019-03-23T14:51:00.313Z,3.47
2019-03-23T14:52:26.500Z,3.33
2019-03-23T14:53:52.600Z,3.20
2019-03-23T14:55:18.583Z,3.47
2019-03-23T14:56:44.685Z,4.03
2019-03-23T14:58:11.043Z,4.10
2019-03-23T14:59:37.074Z,3.23
2019-03-23T15:01:03.276Z,3.67
2019-03-23T15:02:29.490Z,3.87
2019-03-23T15:03:55.652Z,3.93
2019-03-23T15:05:21.723Z,3.67
2019-03-23T15:06:51.815Z,3.60
2019-03-23T15:08:18.584Z,3.77
2019-03-23T15:09:44.640Z,3.67
2019-03-23T15:11:11.094Z,3.77
2019-03-23T15:12:37.211Z,3.73
2019-03-23T15:14:03.459Z,4.83
2019-03-23T15:15:48.250Z,4.40
2019-03-23T15:17:14.327Z,4.50
2019-03-23T15:18:41.066Z,4.53
2019-03-23T15:20:07.554Z,3.97
2019-03-23T15:21:33.716Z,4.63
2019-03-23T15:22:59.802Z,4.30
2019-03-23T15:24:25.944Z,4.60
2019-03-23T15:25:52.062Z,4.03
2019-03-23T15:27:18.200Z,3.97
2019-03-23T15:28:44.410Z,3.97
2019-03-23T15:30:13.029Z,4.40
2019-03-23T15:31:39.033Z,4.70
2019-03-23T15:33:05.469Z,4.53
2019-03-23T15:34:31.507Z,4.43
2019-03-23T15:36:03.654Z,4.10
2019-03-23T15:37:30.188Z,4.80
2019-03-23T15:38:56.372Z,4.63
2019-03-23T15:40:24.647Z,5.00
2019-03-23T15:41:50.747Z,4.50
2019-03-23T15:43:16.852Z,4.40
2019-03-23T15:44:42.959Z,4.93
2019-03-23T15:46:09.008Z,5.40
2019-03-23T15:47:36.412Z,4.00
2019-03-23T15:49:03.931Z,4.70
2019-03-23T15:50:31.685Z,4.37
2019-03-23T15:51:57.779Z,4.50
2019-03-23T15:53:24.058Z,5.20
2019-03-23T15:54:50.303Z,5.07
2019-03-23T15:56:16.529Z,4.90
2019-03-23T15:57:42.763Z,4.87
2019-03-23T15:59:27.909Z,5.27
2019-03-23T16:00:54.710Z,4.77
2019-03-23T16:02:21.646Z,4.50
2019-03-23T16:03:52.569Z,4.50
2019-03-23T16:05:21.966Z,3.80
2019-03-23T16:06:48.075Z,4.30
2019-03-23T16:08:14.664Z,4.20
2019-03-23T16:09:40.839Z,3.33
2019-03-23T16:11:07.163Z,4.50
2019-03-23T16:12:35.277Z,3.50
2019-03-23T16:14:00.924Z,3.70
2019-03-23T16:15:27.607Z,3.90
2019-03-23T16:16:53.910Z,3.77
2019-03-23T16:18:20.196Z,4.00
2019-03-23T16:19:46.190Z,4.30
2019-03-23T16:21:12.515Z,4.00
2019-03-23T16:22:38.722Z,4.50
2019-03-23T16:24:05.272Z,4.60
2019-03-23T16:25:31.609Z,3.70
2019-03-23T16:26:57.803Z,3.67
2019-03-23T16:28:24.400Z,4.43
2019-03-23T16:30:18.511Z,4.63
2019-03-23T16:31:39.911Z,4.67
2019-03-23T16:33:06.239Z,5.23
2019-03-23T16:34:32.364Z,5.10
2019-03-23T16:35:58.547Z,5.20
2019-03-23T16:37:24.805Z,4.63
2019-03-23T16:38:50.876Z,4.10
2019-03-23T16:40:24.354Z,4.70
2019-03-23T16:41:50.459Z,4.63
2019-03-23T16:43:16.503Z,4.67
2019-03-23T16:44:42.664Z,4.97
2019-03-23T16:46:08.718Z,4.70
2019-03-23T16:47:55.426Z,4.43
2019-03-23T16:49:22.532Z,4.10
2019-03-23T16:50:48.658Z,5.73
2019-03-23T16:52:14.993Z,5.50
2019-03-23T16:53:41.113Z,5.30
2019-03-23T16:55:08.309Z,4.40
2019-03-23T16:56:34.564Z,5.07
2019-03-23T16:58:00.705Z,5.60
2019-03-23T16:59:27.113Z,4.87
2019-03-23T17:00:53.246Z,5.23
2019-03-23T17:02:19.764Z,5.67
2019-03-23T17:03:46.078Z,5.57
2019-03-23T17:05:12.450Z,5.57
2019-03-23T17:06:46.065Z,5.33
2019-03-23T17:08:06.599Z,5.10
2019-03-23T17:09:33.019Z,4.67
2019-03-23T17:10:59.425Z,4.97
2019-03-23T17:12:25.831Z,5.43
2019-03-23T17:13:54.393Z,4.63
2019-03-23T17:15:20.782Z,5.13
2019-03-23T17:16:48.717Z,4.37
2019-03-23T17:18:17.583Z,4.63
2019-03-23T17:19:43.869Z,6.30
2019-03-23T17:21:10.346Z,6.00
2019-03-23T17:22:36.479Z,6.57
2019-03-23T17:24:02.640Z,5.87
2019-03-23T17:25:28.669Z,5.33
2019-03-23T17:26:54.943Z,4.40
2019-03-23T17:28:21.144Z,4.17
2019-03-23T17:29:47.465Z,4.60
2019-03-23T17:31:15.340Z,4.57
2019-03-23T17:32:41.524Z,4.07
2019-03-23T17:34:07.825Z,4.53
2019-03-23T17:35:33.862Z,4.57
2019-03-23T17:37:00.102Z,5.50
2019-03-23T17:38:26.239Z,5.30
2019-03-23T17:39:52.890Z,5.97
2019-03-23T17:41:19.284Z,6.50
2019-03-23T17:42:45.537Z,7.03
2019-03-23T17:44:11.600Z,6.80
2019-03-23T17:45:38.969Z,7.40
2019-03-23T17:47:11.319Z,6.10
2019-03-23T17:48:37.591Z,6.27
2019-03-23T17:50:03.949Z,7.60
2019-03-23T17:51:30.038Z,7.57
2019-03-23T17:52:56.206Z,7.10
2019-03-23T17:54:22.348Z,7.00
2019-03-23T17:55:49.105Z,7.00
2019-03-23T17:57:15.323Z,7.10
2019-03-23T17:58:41.468Z,7.97
2019-03-23T18:00:08.548Z,7.00
2019-03-23T18:01:34.602Z,5.50
2019-03-23T18:03:01.052Z,7.00
2019-03-23T18:04:29.408Z,7.13
2019-03-23T18:05:55.729Z,7.30
2019-03-23T18:07:22.294Z,8.33
2019-03-23T18:08:48.540Z,8.83
2019-03-23T18:10:15.090Z,9.00
2019-03-23T18:11:41.373Z,10.00
2019-03-23T18:13:16.107Z,8.80
2019-03-23T18:14:36.159Z,9.10
2019-03-23T18:16:02.587Z,8.80
2019-03-23T18:17:28.936Z,8.20
2019-03-23T18:18:55.098Z,9.33
2019-03-23T18:20:21.421Z,8.70
2019-03-23T18:21:47.811Z,9.17
2019-03-23T18:23:15.807Z,8.00
2019-03-23T18:24:42.104Z,8.90
2019-03-23T18:26:08.387Z,9.00
2019-03-23T18:27:34.783Z,10.10
2019-03-23T18:29:01.425Z,8.27
2019-03-23T18:30:41.219Z,9.57
2019-03-23T18:32:09.268Z,9.93
2019-03-23T18:33:35.526Z,8.47
2019-03-23T18:35:03.217Z,8.67
2019-03-23T18:36:29.623Z,10.13
2019-03-23T18:37:55.928Z,8.73
2019-03-23T18:39:22.056Z,8.50
2019-03-23T18:40:48.330Z,9.33
2019-03-23T18:42:15.196Z,8.00
2019-03-23T18:43:41.536Z,9.33
2019-03-23T18:45:08.023Z,8.03
2019-03-23T18:46:34.263Z,7.40
2019-03-23T18:48:00.637Z,7.67
2019-03-23T18:49:27.000Z,8.40
2019-03-23T18:50:53.502Z,8.63
2019-03-23T18:52:19.715Z,8.20
2019-03-23T18:53:45.898Z,8.00
2019-03-23T18:55:17.679Z,8.10
2019-03-23T18:56:45.235Z,8.90
2019-03-23T18:58:11.839Z,7.40
2019-03-23T18:59:40.351Z,8.03
2019-03-23T19:01:07.895Z,8.43
2019-03-23T19:02:34.622Z,8.63
2019-03-23T19:04:01.586Z,8.40
2019-03-23T19:05:27.792Z,8.00
2019-03-23T19:06:54.192Z,9.23
2019-03-23T19:08:25.613Z,9.00
2019-03-23T19:09:53.060Z,9.47
2019-03-23T19:11:19.137Z,8.23
2019-03-23T19:12:45.151Z,11.73
2019-03-23T19:14:14.488Z,9.90
2019-03-23T19:15:40.560Z,8.93
2019-03-23T19:17:06.924Z,8.50
2019-03-23T19:18:34.520Z,9.13
2019-03-23T19:20:00.570Z,8.10
2019-03-23T19:21:26.659Z,9.20
2019-03-23T19:22:52.995Z,9.10
2019-03-23T19:24:19.120Z,10.23
2019-03-23T19:25:45.422Z,10.43
2019-03-23T19:27:11.847Z,11.20
2019-03-23T19:28:38.628Z,9.83
2019-03-23T19:30:05.196Z,9.37
2019-03-23T19:31:31.414Z,10.40
2019-03-23T19:32:57.560Z,10.60
2019-03-23T19:34:23.560Z,9.93
2019-03-23T19:35:49.623Z,11.63
2019-03-23T19:37:15.867Z,10.57
2019-03-23T19:38:42.610Z,10.47
2019-03-23T19:40:09.644Z,10.80
2019-03-23T19:41:38.561Z,10.53
2019-03-23T19:43:04.765Z,10.80
2019-03-23T19:44:30.794Z,10.50
2019-03-23T19:45:56.905Z,10.83
2019-03-23T19:47:23.190Z,10.53
2019-03-23T19:48:49.320Z,9.63
2019-03-23T19:50:16.016Z,10.50
2019-03-23T19:51:42.217Z,10.17
2019-03-23T19:53:08.396Z,9.43
2019-03-23T19:54:34.608Z,9.20
2019-03-23T19:56:04.087Z,9.67
2019-03-23T19:57:30.113Z,9.97
2019-03-23T19:58:56.432Z,9.20
2019-03-23T20:00:22.784Z,9.17
2019-03-23T20:01:48.791Z,8.60
2019-03-23T20:03:14.921Z,10.27
2019-03-23T20:04:41.207Z,8.70
2019-03-23T20:06:07.500Z,9.67
2019-03-23T20:07:42.657Z,9.60
2019-03-23T20:09:09.801Z,9.30
2019-03-23T20:10:38.298Z,9.77
2019-03-23T20:12:04.463Z,10.20
2019-03-23T20:13:30.512Z,9.03
2019-03-23T20:14:56.961Z,9.00
2019-03-23T20:16:22.969Z,9.33
2019-03-23T20:17:49.479Z,8.63
2019-03-23T20:19:15.736Z,9.37
2019-03-23T20:20:41.768Z,9.33
2019-03-23T20:22:07.813Z,9.30
2019-03-23T20:23:33.890Z,9.10
2019-03-23T20:24:59.904Z,9.10
2019-03-23T20:26:26.326Z,9.80
2019-03-23T20:27:52.652Z,10.70
2019-03-23T20:29:18.826Z,10.90
2019-03-23T20:30:47.340Z,9.90
2019-03-23T20:32:13.593Z,9.90
2019-03-23T20:33:39.704Z,10.63
2019-03-23T20:35:06.592Z,10.30
2019-03-23T20:36:33.468Z,10.87
2019-03-23T20:37:59.904Z,10.77
2019-03-23T20:39:26.297Z,10.40
2019-03-23T20:40:52.945Z,9.00
2019-03-23T20:42:18.958Z,8.90
2019-03-23T20:43:45.138Z,10.00
2019-03-23T20:45:12.063Z,9.43
2019-03-23T20:46:38.304Z,9.20
2019-03-23T20:48:04.768Z,9.33
2019-03-23T20:49:31.523Z,10.47
2019-03-23T20:50:57.787Z,8.17
2019-03-23T20:52:24.326Z,9.40
2019-03-23T20:53:50.577Z,10.07
